Airfield :







YOU CAN JOIN US ON...

 
LOGIN :

Register | Disclaimer

   EN    FR    IT 

 









Legend :    VFR   Marginal VFR   IFR   Intensive IFR   Very Intensive IFR
Visi :
Ceiling :
>= 8 km
>= 3000ft
5 to 8 km
1000 to 3000 ft
1500m to 5 km
500 to 1000 ft
800 to 1500m
200 to 500 ft
< 800m
< 200 ft
Symbols :   Thunderstorms  Fog  Heavy snow  Heavy precipitations  Wind > 20 kt






- Airport Elevation : 9 ft
- IATA code : SJU


TJSJ - Luis Munoz Marin Int.

CURRENT METAR :
  • 180356Z 12004KT 10SM FEW022 SCT040 SCT075 24/22 A3009 RMK AO2 RAB24E39 SLP188 P0000 T02440217 402940233

EXPIRED METARs :
  • 180256Z 12006KT 10SM FEW020 SCT031 SCT055 24/22 A3010 RMK AO2 SLP191 VCSH E 60002 T02440217 51008
  • 180156Z 11006KT 10SM FEW017 SCT030 BKN042 24/22 A3009 RMK AO2 SLP189 T02390217

TAF TJSJ
Valid from the 18 at 00:00 until the 19 at 00:00 UTC


172340Z 1800/1824 10010KT P6SM -SHRA FEW025 BKN050
FM180400 09008KT P6SM FEW030
FM181400 08015G25KT P6SM VCSH SCT030 SCT050
FM182200 09012KT P6SM FEW035 SCT050



MET'MAP, your aeronautical weather chart ! - Copyright ORBIFLY December 2007 - Disclaimer

ORBIFLY MET'MAP TEAM :

Programming & Development : Alexandra Zaïnal
Concept & original design : Baudouin d'Aumeries
Assistance for programming : Marc-Olivier Méhu
Technical & hardware support : Manuel Goepfert

Contact : metmap@orbifly.com




SOURCES & CREDITS :

   NOAA